Burgtor — V2OR7 — position and weather

sailwx.info

Track history (hours):
 
Tides and Currents Weather Stations Pressure Air Temp Water Temp Dewpoint Dewpoint Depression Visibility Wind Speed Wind Dir Waves Ship Positions

Burgtor

Last reported at 2017-May-27 02:35 UTC. Time now 2017-May-27 22:58 UTC.
Position N 56°30' W 001°55'.

Length 87 m; draft 4.8 m.

Type: Cargo ship. MMSI: 304665000.

Date/timePositionNaut miles runAvg speedWind from/ knotsBaromVisibWave heightAir tempDewpointWater temp
2017-May-27 02:35N 56°30' W 001°55'1 9.0
2017-May-27 02:30N 56°30' W 001°56'4 8.8
2017-May-27 02:00N 56°29' W 002°04'4 8.7
2017-May-27 01:30N 56°29' W 002°12'4 8.9
2017-May-27 01:00N 56°29' W 002°20'5 9.1
2017-May-27 00:30N 56°28' W 002°28'5 9.1
2017-May-27 00:00N 56°28' W 002°37'4 7.8
2017-May-26 23:30N 56°27' W 002°43'3 6.2
2017-May-26 23:00N 56°27' W 002°49'4 7.6
2017-May-26 22:30N 56°28' W 002°56'0 0.3
2017-May-26 21:59N 56°28' W 002°56'0 0.0
2017-May-26 21:30N 56°28' W 002°56'0 0.0
2017-May-26 20:59N 56°28' W 002°56'0 0.0
2017-May-26 20:30N 56°28' W 002°56'0 0.0
2017-May-26 19:58N 56°28' W 002°56'0 0.0
2017-May-26 19:30N 56°28' W 002°56'0 0.0
2017-May-26 19:00N 56°28' W 002°56'0 0.0
2017-May-26 18:30N 56°28' W 002°56'0 0.0
2017-May-26 18:00N 56°28' W 002°56'0 0.0
2017-May-26 17:30N 56°28' W 002°56'0 0.0
2017-May-26 17:00N 56°28' W 002°56'0 0.0
2017-May-26 16:30N 56°28' W 002°56'0 0.0
2017-May-26 16:00N 56°28' W 002°56'0 0.0
2017-May-26 15:30N 56°28' W 002°56'0 0.0
2017-May-26 15:00N 56°28' W 002°56'0 0.0
2017-May-26 14:00N 56°28' W 002°56'0 0.0
2017-May-26 13:30N 56°28' W 002°56'0 0.0
2017-May-26 13:00N 56°28' W 002°56'0 0.0
2017-May-26 12:30N 56°28' W 002°56'0 0.0
2017-May-26 12:00N 56°28' W 002°56'0 0.0
2017-May-26 11:30N 56°28' W 002°56'0 0.0
2017-May-26 11:00N 56°28' W 002°56'0 0.0
2017-May-26 10:30N 56°28' W 002°56'0 0.0
2017-May-26 10:00N 56°28' W 002°56'0 0.0
2017-May-26 09:30N 56°28' W 002°56'0 0.0
2017-May-26 09:00N 56°28' W 002°56'0 0.0
2017-May-26 08:30N 56°28' W 002°56'0 0.0
2017-May-26 08:00N 56°28' W 002°56'0 0.0
2017-May-26 07:30N 56°28' W 002°56'0 0.0
2017-May-26 07:00N 56°28' W 002°56'0 0.0
2017-May-26 06:30N 56°28' W 002°56'0 0.0
2017-May-26 06:00N 56°28' W 002°56'0 0.0
2017-May-26 05:30N 56°28' W 002°56'0 0.0
2017-May-26 04:56N 56°28' W 002°56'0 0.0
2017-May-26 04:30N 56°28' W 002°56'0 0.0
2017-May-26 04:00N 56°28' W 002°56'0 0.0
2017-May-26 03:30N 56°28' W 002°56'0 0.0
2017-May-26 03:00N 56°28' W 002°56'0 0.0
2017-May-26 02:30N 56°28' W 002°56'0 0.0
2017-May-26 01:58N 56°28' W 002°56'0 0.0
2017-May-26 01:30N 56°28' W 002°56'0 0.0
2017-May-26 01:00N 56°28' W 002°56'0 0.0
2017-May-26 00:30N 56°28' W 002°56'0 0.0
2017-May-26 00:00N 56°28' W 002°56'0 0.0
2017-May-25 23:30N 56°28' W 002°56'0 0.0
2017-May-25 23:00N 56°28' W 002°56'0 0.0
2017-May-25 22:30N 56°28' W 002°56'0 0.0
2017-May-25 22:00N 56°28' W 002°56'0 0.0
2017-May-25 21:30N 56°28' W 002°56'0 0.0
2017-May-25 20:54N 56°28' W 002°56'0 0.0
2017-May-25 20:03N 56°28' W 002°56'0 0.0
2017-May-25 19:57N 56°28' W 002°56'0 0.0
2017-May-25 19:30N 56°28' W 002°56'0 0.0
2017-May-25 19:00N 56°28' W 002°56'0 0.0
2017-May-25 18:30N 56°28' W 002°56'0 0.0
2017-May-25 18:00N 56°28' W 002°56'0 0.0
2017-May-25 17:30N 56°28' W 002°56'0 0.0
2017-May-25 17:00N 56°28' W 002°56'0 0.0
2017-May-25 16:30N 56°28' W 002°56'0 0.0
2017-May-25 16:00N 56°28' W 002°56'0 0.0
2017-May-25 15:30N 56°28' W 002°56'0 0.0
2017-May-25 15:00N 56°28' W 002°56'0 0.0
2017-May-25 14:00N 56°28' W 002°56'0 0.0
2017-May-25 13:30N 56°28' W 002°56'0 0.0
2017-May-25 13:00N 56°28' W 002°56'0 0.0
2017-May-25 12:30N 56°28' W 002°56'0 0.0
2017-May-25 12:00N 56°28' W 002°56'0 0.0
2017-May-25 11:30N 56°28' W 002°56'0 0.0
2017-May-25 11:00N 56°28' W 002°56'0 0.0
2017-May-25 10:30N 56°28' W 002°56'0 0.0
2017-May-25 10:00N 56°28' W 002°56'0 0.0
2017-May-25 09:30N 56°28' W 002°56'0 0.0
2017-May-25 09:00N 56°28' W 002°56'0 0.0
2017-May-25 07:53N 56°28' W 002°56'0 0.0
2017-May-25 07:26N 56°28' W 002°56'0 0.0
2017-May-25 06:59N 56°28' W 002°56'0 0.0
2017-May-25 06:30N 56°28' W 002°56'0 0.0
2017-May-25 06:00N 56°28' W 002°56'0 0.0
2017-May-25 05:30N 56°28' W 002°56'0 0.0
2017-May-25 05:00N 56°28' W 002°56'0 0.0
2017-May-25 04:30N 56°28' W 002°56'0 0.0
2017-May-25 04:00N 56°28' W 002°56'0 0.0
2017-May-25 03:30N 56°28' W 002°56'0 0.0
2017-May-25 03:00N 56°28' W 002°56'0 0.0
2017-May-25 02:30N 56°28' W 002°56'0 0.0
2017-May-25 02:00N 56°28' W 002°56'0 0.0
2017-May-25 01:30N 56°28' W 002°56'0 0.0
2017-May-25 01:00N 56°28' W 002°56'0 0.0
2017-May-25 00:30N 56°28' W 002°56'0 0.0
2017-May-25 00:00N 56°28' W 002°56'0 0.0
2017-May-24 23:30N 56°28' W 002°56'0 0.0
2017-May-24 23:00N 56°28' W 002°56'0 0.0
2017-May-24 22:30N 56°28' W 002°56'0 0.0
2017-May-24 22:00N 56°28' W 002°56'0 0.6
2017-May-24 21:30N 56°28' W 002°56'611.3
2017-May-24 21:00N 56°27' W 002°46'510.6
2017-May-24 20:30N 56°28' W 002°37'5 9.6
2017-May-24 20:00N 56°24' W 002°40'1 1.6
2017-May-24 19:25N 56°23' W 002°40'0 0.0
2017-May-24 18:58N 56°23' W 002°40'0 0.0
2017-May-24 18:28N 56°23' W 002°40'0 0.0
2017-May-24 17:55N 56°23' W 002°40'0 0.0
2017-May-24 17:28N 56°23' W 002°40'0 0.0
2017-May-24 16:58N 56°23' W 002°40'0 0.0
2017-May-24 16:28N 56°23' W 002°40'0 0.0
2017-May-24 15:58N 56°23' W 002°40'0 0.0
2017-May-24 15:28N 56°23' W 002°40'0 0.0
2017-May-24 14:58N 56°23' W 002°40'0 0.0
2017-May-24 14:28N 56°23' W 002°40'0 0.0
2017-May-24 13:31N 56°23' W 002°40'0 0.1
2017-May-24 13:01N 56°23' W 002°40'0 0.0
2017-May-24 12:31N 56°23' W 002°40'0 0.0
2017-May-24 12:00N 56°23' W 002°40'0 0.0
2017-May-24 11:30N 56°23' W 002°40'0 0.0
2017-May-24 11:00N 56°23' W 002°40'0 0.1
2017-May-24 10:30N 56°23' W 002°40'0 0.0
2017-May-24 10:00N 56°23' W 002°40'0 0.0
2017-May-24 09:30N 56°23' W 002°40'0 0.0
2017-May-24 09:00N 56°23' W 002°40'0 0.1
2017-May-24 08:30N 56°23' W 002°40'0 0.1
2017-May-24 08:00N 56°23' W 002°40'0 0.0
2017-May-24 07:30N 56°23' W 002°40'0 0.0
2017-May-24 07:00N 56°23' W 002°40'0 0.0
2017-May-24 06:30N 56°23' W 002°40'0 0.0
2017-May-24 06:00N 56°23' W 002°40'0 0.0
2017-May-24 05:30N 56°23' W 002°40'0 0.0
2017-May-24 05:00N 56°23' W 002°40'0 0.0
2017-May-24 04:30N 56°23' W 002°40'0 0.0
2017-May-24 04:00N 56°23' W 002°40'0 0.0
2017-May-24 03:30N 56°23' W 002°40'0 0.0
2017-May-24 03:00N 56°23' W 002°40'0 0.0
2017-May-24 02:30N 56°23' W 002°40'0 0.0
2017-May-24 02:00N 56°23' W 002°40'0 0.1
2017-May-24 01:30N 56°23' W 002°40'0 0.1
2017-May-24 01:00N 56°23' W 002°40'0 0.0
2017-May-24 00:30N 56°23' W 002°40'0 0.1
2017-May-24 00:00N 56°23' W 002°40'0 0.0
2017-May-23 23:30N 56°23' W 002°40'0 0.0
2017-May-23 23:00N 56°23' W 002°40'0 0.0
2017-May-23 22:30N 56°23' W 002°40'0 0.0
2017-May-23 22:00N 56°23' W 002°40'0 0.0
2017-May-23 21:30N 56°23' W 002°40'0 0.0
2017-May-23 21:00N 56°23' W 002°40'0 0.0
2017-May-23 20:30N 56°23' W 002°40'0 0.0
2017-May-23 20:00N 56°23' W 002°40'0 0.0
2017-May-23 19:30N 56°23' W 002°40'0 0.0
2017-May-23 19:00N 56°23' W 002°40'0 0.0
2017-May-23 18:30N 56°23' W 002°40'0 0.0
2017-May-23 18:00N 56°23' W 002°40'0 0.0
2017-May-23 17:30N 56°23' W 002°40'0 0.0
2017-May-23 17:00N 56°23' W 002°40'2 4.2
2017-May-23 16:30N 56°21' W 002°37'510.6
2017-May-23 16:00N 56°18' W 002°31'5 9.7
2017-May-23 15:30N 56°13' W 002°34'611.5
2017-May-23 15:00N 56°10' W 002°42'611.4
2017-May-23 14:30N 56°06' W 002°50'1111.2
2017-May-23 13:30N 56°01' W 003°08'2 4.3
2017-May-23 13:00N 55°59' W 003°11'0 0.7
2017-May-23 12:29N 55°59' W 003°11'0 0.0
2017-May-23 11:59N 55°59' W 003°11'0 0.0
2017-May-23 11:29N 55°59' W 003°11'0 0.0
2017-May-23 10:59N 55°59' W 003°11'0 0.0
2017-May-23 10:29N 55°59' W 003°11'0 0.0
2017-May-23 09:59N 55°59' W 003°11'0 0.0
2017-May-23 09:29N 55°59' W 003°11'0 0.0
2017-May-23 08:59N 55°59' W 003°11'0 0.0
2017-May-23 08:29N 55°59' W 003°11'0 0.0
2017-May-23 07:59N 55°59' W 003°11'0 0.0
2017-May-23 07:29N 55°59' W 003°11'0 0.0
2017-May-23 06:59N 55°59' W 003°11'0 0.0
2017-May-23 06:29N 55°59' W 003°11'0 0.0
2017-May-23 05:59N 55°59' W 003°11'0 0.0
2017-May-23 05:29N 55°59' W 003°11'0 0.0
2017-May-23 04:59N 55°59' W 003°11'0 0.0
2017-May-23 04:29N 55°59' W 003°11'0 0.0
2017-May-23 03:59N 55°59' W 003°11'0 0.0
2017-May-23 03:29N 55°59' W 003°11'0 0.0
2017-May-23 02:59N 55°59' W 003°11'0 0.0
2017-May-23 02:29N 55°59' W 003°11'0 0.0
2017-May-23 01:59N 55°59' W 003°11'0 0.0
2017-May-23 01:29N 55°59' W 003°11'0 0.0
2017-May-23 00:59N 55°59' W 003°11'0 0.0
2017-May-23 00:29N 55°59' W 003°11'0 0.0
2017-May-22 23:59N 55°59' W 003°11'0 0.0
2017-May-22 23:29N 55°59' W 003°11'0 0.0
2017-May-22 22:59N 55°59' W 003°11'0 0.0
2017-May-22 22:29N 55°59' W 003°11'0 0.0
2017-May-22 21:59N 55°59' W 003°11'0 0.0
2017-May-22 21:29N 55°59' W 003°11'0 0.0
2017-May-22 20:59N 55°59' W 003°11'0 0.0
2017-May-22 20:29N 55°59' W 003°11'0 0.0
2017-May-22 19:59N 55°59' W 003°11'0 0.0
2017-May-22 19:29N 55°59' W 003°11'0 0.0
2017-May-22 18:59N 55°59' W 003°11'0 0.0
2017-May-22 18:29N 55°59' W 003°11'0 0.0
2017-May-22 17:59N 55°59' W 003°11'0 0.0
2017-May-22 17:29N 55°59' W 003°11'0 0.0
2017-May-22 16:59N 55°59' W 003°11'0 0.0
2017-May-22 16:29N 55°59' W 003°11'0 0.0
2017-May-22 15:59N 55°59' W 003°11'0 0.0
2017-May-22 15:29N 55°59' W 003°11'0 0.0
2017-May-22 14:59N 55°59' W 003°11'0 0.0
2017-May-22 13:59N 55°59' W 003°11'0 0.0
2017-May-22 13:29N 55°59' W 003°11'0 0.0
2017-May-22 12:59N 55°59' W 003°11'0 0.0
2017-May-22 12:29N 55°59' W 003°11'0 0.0
2017-May-22 11:59N 55°59' W 003°11'0 0.0
2017-May-22 11:29N 55°59' W 003°11'0 0.0
2017-May-22 10:59N 55°59' W 003°11'0 0.0
2017-May-22 10:29N 55°59' W 003°11'0 0.0
2017-May-22 09:59N 55°59' W 003°11'0 0.0
2017-May-22 09:28N 55°59' W 003°11'0 0.0
2017-May-22 08:58N 55°59' W 003°11'0 0.0
2017-May-22 08:28N 55°59' W 003°11'0 0.0
2017-May-22 07:58N 55°59' W 003°11'0 0.0
2017-May-22 07:28N 55°59' W 003°11'0 0.0
2017-May-22 06:58N 55°59' W 003°11'0 0.0
2017-May-22 06:28N 55°59' W 003°11'0 0.0
2017-May-22 05:58N 55°59' W 003°11'0 0.0
2017-May-22 05:28N 55°59' W 003°11'0 0.0
2017-May-22 05:01N 55°59' W 003°11'0 0.8
2017-May-22 04:31N 55°59' W 003°11'0 0.0
2017-May-22 04:01N 55°59' W 003°11'1 2.1
2017-May-22 03:30N 56°00' W 003°12'0 0.7
2017-May-22 03:00N 56°00' W 003°11'1 2.3
2017-May-22 02:30N 56°00' W 003°09'4 7.6
2017-May-22 02:01N 56°02' W 003°03'4 8.9
2017-May-22 01:31N 56°04' W 002°56'4 9.0
2017-May-22 01:01N 56°06' W 002°49'5 9.0
2017-May-22 00:30N 56°07' W 002°41'5 9.3
2017-May-22 00:01N 56°08' W 002°33'5 9.5
2017-May-21 23:31N 56°09' W 002°24'5 9.3
2017-May-21 23:01N 56°09' W 002°16'5 9.1
2017-May-21 22:31N 56°10' W 002°08'5 9.2
2017-May-21 22:01N 56°11' W 001°60'5 9.2
2017-May-21 21:30N 56°12' W 001°52'5 9.3
2017-May-21 21:00N 56°12' W 001°43'368 8.9
2017-May-20 03:32N 57°37' E 009°13'0 9.0
2017-May-20 03:29N 57°37' E 009°14'6 9.2
2017-May-20 02:47N 57°39' E 009°25'3 9.4
2017-May-20 02:30N 57°39' E 009°30'5 9.5
2017-May-20 02:00N 57°41' E 009°39'5 9.7
2017-May-20 01:30N 57°42' E 009°47'5 9.7
2017-May-20 01:00N 57°43' E 009°56'5 9.5
2017-May-20 00:30N 57°45' E 010°05'5 9.3
2017-May-20 00:00N 57°46' E 010°13'5 9.2
2017-May-19 23:30N 57°48' E 010°21'5 9.1
2017-May-19 23:00N 57°48' E 010°30'5 9.3
2017-May-19 22:30N 57°49' E 010°38'4 8.2
2017-May-19 22:01N 57°49' E 010°46'5 9.1
2017-May-19 21:28N 57°45' E 010°52'4 8.8
2017-May-19 21:00N 57°42' E 010°58'4 9.0
2017-May-19 20:30N 57°39' E 011°04'5 9.5
2017-May-19 20:00N 57°36' E 011°11'5 9.8
2017-May-19 19:30N 57°33' E 011°18'5 9.8
2017-May-19 19:00N 57°30' E 011°24'5 9.3
2017-May-19 18:31N 57°25' E 011°28'5 9.7
2017-May-19 18:00N 57°21' E 011°30'510.0
2017-May-19 17:30N 57°16' E 011°34'510.1
2017-May-19 17:01N 57°11' E 011°37'510.1
2017-May-19 16:30N 57°07' E 011°40'5 9.7
2017-May-19 16:00N 57°02' E 011°43'5 9.4
2017-May-19 15:30N 56°58' E 011°47'5 9.2
2017-May-19 15:00N 56°53' E 011°49'11 9.0
2017-May-19 13:49N 56°43' E 011°55'32 8.6
2017-May-19 10:07N 56°14' E 012°17'1 9.5
2017-May-19 10:01N 56°13' E 012°19'4 9.0
2017-May-19 09:31N 56°10' E 012°25'5 9.1
2017-May-19 09:01N 56°08' E 012°32'4 8.9
2017-May-19 08:31N 56°05' E 012°37'4 8.3
2017-May-19 08:01N 56°01' E 012°41'4 8.7
2017-May-19 07:31N 55°57' E 012°44'4 8.7
2017-May-19 07:00N 55°52' E 012°45'4 8.8
2017-May-19 06:30N 55°48' E 012°47'4 8.8
2017-May-19 06:01N 55°44' E 012°51'4 8.7
2017-May-19 05:30N 55°41' E 012°55'4 7.6
2017-May-19 05:01N 55°37' E 012°54'4 7.2
2017-May-19 04:30N 55°34' E 012°50'4 7.4
2017-May-19 04:01N 55°32' E 012°45'4 8.3
2017-May-19 03:30N 55°28' E 012°43'4 8.9
2017-May-19 03:01N 55°23' E 012°41'5 9.1
2017-May-19 02:31N 55°19' E 012°40'4 8.8
2017-May-19 02:00N 55°17' E 012°47'5 9.3
2017-May-19 01:30N 55°15' E 012°55'4 8.9
2017-May-19 01:00N 55°13' E 013°02'5 9.4
2017-May-19 00:30N 55°10' E 013°07'14 9.4
2017-May-18 22:58N 54°58' E 013°22'5 9.2
2017-May-18 22:28N 54°54' E 013°26'10 9.1
2017-May-18 21:23N 54°46' E 013°35'9 9.4
2017-May-18 20:24N 54°38' E 013°43'36 4.9
2017-May-18 13:06N 54°02' E 013°46'  
Track history (hours):
 
Tides and Currents Weather Stations Pressure Air Temp Water Temp Dewpoint Dewpoint Depression Visibility Wind Speed Wind Dir Waves Ship Positions

Burgtor

Last reported at 2017-May-27 02:35 UTC. Time now 2017-May-27 22:58 UTC.
Position N 56°30' W 001°55'.

Length 87 m; draft 4.8 m.

Type: Cargo ship. MMSI: 304665000.

Date/timePositionNaut miles runAvg speedWind from/ knotsBaromVisibWave heightAir tempDewpointWater temp
2017-May-27 02:35N 56°30' W 001°55'1 9.0
2017-May-27 02:30N 56°30' W 001°56'4 8.8
2017-May-27 02:00N 56°29' W 002°04'4 8.7
2017-May-27 01:30N 56°29' W 002°12'4 8.9
2017-May-27 01:00N 56°29' W 002°20'5 9.1
2017-May-27 00:30N 56°28' W 002°28'5 9.1
2017-May-27 00:00N 56°28' W 002°37'4 7.8
2017-May-26 23:30N 56°27' W 002°43'3 6.2
2017-May-26 23:00N 56°27' W 002°49'4 7.6
2017-May-26 22:30N 56°28' W 002°56'0 0.3
2017-May-26 21:59N 56°28' W 002°56'0 0.0
2017-May-26 21:30N 56°28' W 002°56'0 0.0
2017-May-26 20:59N 56°28' W 002°56'0 0.0
2017-May-26 20:30N 56°28' W 002°56'0 0.0
2017-May-26 19:58N 56°28' W 002°56'0 0.0
2017-May-26 19:30N 56°28' W 002°56'0 0.0
2017-May-26 19:00N 56°28' W 002°56'0 0.0
2017-May-26 18:30N 56°28' W 002°56'0 0.0
2017-May-26 18:00N 56°28' W 002°56'0 0.0
2017-May-26 17:30N 56°28' W 002°56'0 0.0
2017-May-26 17:00N 56°28' W 002°56'0 0.0
2017-May-26 16:30N 56°28' W 002°56'0 0.0
2017-May-26 16:00N 56°28' W 002°56'0 0.0
2017-May-26 15:30N 56°28' W 002°56'0 0.0
2017-May-26 15:00N 56°28' W 002°56'0 0.0
2017-May-26 14:00N 56°28' W 002°56'0 0.0
2017-May-26 13:30N 56°28' W 002°56'0 0.0
2017-May-26 13:00N 56°28' W 002°56'0 0.0
2017-May-26 12:30N 56°28' W 002°56'0 0.0
2017-May-26 12:00N 56°28' W 002°56'0 0.0
2017-May-26 11:30N 56°28' W 002°56'0 0.0
2017-May-26 11:00N 56°28' W 002°56'0 0.0
2017-May-26 10:30N 56°28' W 002°56'0 0.0
2017-May-26 10:00N 56°28' W 002°56'0 0.0
2017-May-26 09:30N 56°28' W 002°56'0 0.0
2017-May-26 09:00N 56°28' W 002°56'0 0.0
2017-May-26 08:30N 56°28' W 002°56'0 0.0
2017-May-26 08:00N 56°28' W 002°56'0 0.0
2017-May-26 07:30N 56°28' W 002°56'0 0.0
2017-May-26 07:00N 56°28' W 002°56'0 0.0
2017-May-26 06:30N 56°28' W 002°56'0 0.0
2017-May-26 06:00N 56°28' W 002°56'0 0.0
2017-May-26 05:30N 56°28' W 002°56'0 0.0
2017-May-26 04:56N 56°28' W 002°56'0 0.0
2017-May-26 04:30N 56°28' W 002°56'0 0.0
2017-May-26 04:00N 56°28' W 002°56'0 0.0
2017-May-26 03:30N 56°28' W 002°56'0 0.0
2017-May-26 03:00N 56°28' W 002°56'0 0.0
2017-May-26 02:30N 56°28' W 002°56'0 0.0
2017-May-26 01:58N 56°28' W 002°56'0 0.0
2017-May-26 01:30N 56°28' W 002°56'0 0.0
2017-May-26 01:00N 56°28' W 002°56'0 0.0
2017-May-26 00:30N 56°28' W 002°56'0 0.0
2017-May-26 00:00N 56°28' W 002°56'0 0.0
2017-May-25 23:30N 56°28' W 002°56'0 0.0
2017-May-25 23:00N 56°28' W 002°56'0 0.0
2017-May-25 22:30N 56°28' W 002°56'0 0.0
2017-May-25 22:00N 56°28' W 002°56'0 0.0
2017-May-25 21:30N 56°28' W 002°56'0 0.0
2017-May-25 20:54N 56°28' W 002°56'0 0.0
2017-May-25 20:03N 56°28' W 002°56'0 0.0
2017-May-25 19:57N 56°28' W 002°56'0 0.0
2017-May-25 19:30N 56°28' W 002°56'0 0.0
2017-May-25 19:00N 56°28' W 002°56'0 0.0
2017-May-25 18:30N 56°28' W 002°56'0 0.0
2017-May-25 18:00N 56°28' W 002°56'0 0.0
2017-May-25 17:30N 56°28' W 002°56'0 0.0
2017-May-25 17:00N 56°28' W 002°56'0 0.0
2017-May-25 16:30N 56°28' W 002°56'0 0.0
2017-May-25 16:00N 56°28' W 002°56'0 0.0
2017-May-25 15:30N 56°28' W 002°56'0 0.0
2017-May-25 15:00N 56°28' W 002°56'0 0.0
2017-May-25 14:00N 56°28' W 002°56'0 0.0
2017-May-25 13:30N 56°28' W 002°56'0 0.0
2017-May-25 13:00N 56°28' W 002°56'0 0.0
2017-May-25 12:30N 56°28' W 002°56'0 0.0
2017-May-25 12:00N 56°28' W 002°56'0 0.0
2017-May-25 11:30N 56°28' W 002°56'0 0.0
2017-May-25 11:00N 56°28' W 002°56'0 0.0
2017-May-25 10:30N 56°28' W 002°56'0 0.0
2017-May-25 10:00N 56°28' W 002°56'0 0.0
2017-May-25 09:30N 56°28' W 002°56'0 0.0
2017-May-25 09:00N 56°28' W 002°56'0 0.0
2017-May-25 07:53N 56°28' W 002°56'0 0.0
2017-May-25 07:26N 56°28' W 002°56'0 0.0
2017-May-25 06:59N 56°28' W 002°56'0 0.0
2017-May-25 06:30N 56°28' W 002°56'0 0.0
2017-May-25 06:00N 56°28' W 002°56'0 0.0
2017-May-25 05:30N 56°28' W 002°56'0 0.0
2017-May-25 05:00N 56°28' W 002°56'0 0.0
2017-May-25 04:30N 56°28' W 002°56'0 0.0
2017-May-25 04:00N 56°28' W 002°56'0 0.0
2017-May-25 03:30N 56°28' W 002°56'0 0.0
2017-May-25 03:00N 56°28' W 002°56'0 0.0
2017-May-25 02:30N 56°28' W 002°56'0 0.0
2017-May-25 02:00N 56°28' W 002°56'0 0.0
2017-May-25 01:30N 56°28' W 002°56'0 0.0
2017-May-25 01:00N 56°28' W 002°56'0 0.0
2017-May-25 00:30N 56°28' W 002°56'0 0.0
2017-May-25 00:00N 56°28' W 002°56'0 0.0
2017-May-24 23:30N 56°28' W 002°56'0 0.0
2017-May-24 23:00N 56°28' W 002°56'0 0.0
2017-May-24 22:30N 56°28' W 002°56'0 0.0
2017-May-24 22:00N 56°28' W 002°56'0 0.6
2017-May-24 21:30N 56°28' W 002°56'611.3
2017-May-24 21:00N 56°27' W 002°46'510.6
2017-May-24 20:30N 56°28' W 002°37'5 9.6
2017-May-24 20:00N 56°24' W 002°40'1 1.6
2017-May-24 19:25N 56°23' W 002°40'0 0.0
2017-May-24 18:58N 56°23' W 002°40'0 0.0
2017-May-24 18:28N 56°23' W 002°40'0 0.0
2017-May-24 17:55N 56°23' W 002°40'0 0.0
2017-May-24 17:28N 56°23' W 002°40'0 0.0
2017-May-24 16:58N 56°23' W 002°40'0 0.0
2017-May-24 16:28N 56°23' W 002°40'0 0.0
2017-May-24 15:58N 56°23' W 002°40'0 0.0
2017-May-24 15:28N 56°23' W 002°40'0 0.0
2017-May-24 14:58N 56°23' W 002°40'0 0.0
2017-May-24 14:28N 56°23' W 002°40'0 0.0
2017-May-24 13:31N 56°23' W 002°40'0 0.1
2017-May-24 13:01N 56°23' W 002°40'0 0.0
2017-May-24 12:31N 56°23' W 002°40'0 0.0
2017-May-24 12:00N 56°23' W 002°40'0 0.0
2017-May-24 11:30N 56°23' W 002°40'0 0.0
2017-May-24 11:00N 56°23' W 002°40'0 0.1
2017-May-24 10:30N 56°23' W 002°40'0 0.0
2017-May-24 10:00N 56°23' W 002°40'0 0.0
2017-May-24 09:30N 56°23' W 002°40'0 0.0
2017-May-24 09:00N 56°23' W 002°40'0 0.1
2017-May-24 08:30N 56°23' W 002°40'0 0.1
2017-May-24 08:00N 56°23' W 002°40'0 0.0
2017-May-24 07:30N 56°23' W 002°40'0 0.0
2017-May-24 07:00N 56°23' W 002°40'0 0.0
2017-May-24 06:30N 56°23' W 002°40'0 0.0
2017-May-24 06:00N 56°23' W 002°40'0 0.0
2017-May-24 05:30N 56°23' W 002°40'0 0.0
2017-May-24 05:00N 56°23' W 002°40'0 0.0
2017-May-24 04:30N 56°23' W 002°40'0 0.0
2017-May-24 04:00N 56°23' W 002°40'0 0.0
2017-May-24 03:30N 56°23' W 002°40'0 0.0
2017-May-24 03:00N 56°23' W 002°40'0 0.0
2017-May-24 02:30N 56°23' W 002°40'0 0.0
2017-May-24 02:00N 56°23' W 002°40'0 0.1
2017-May-24 01:30N 56°23' W 002°40'0 0.1
2017-May-24 01:00N 56°23' W 002°40'0 0.0
2017-May-24 00:30N 56°23' W 002°40'0 0.1
2017-May-24 00:00N 56°23' W 002°40'0 0.0
2017-May-23 23:30N 56°23' W 002°40'0 0.0
2017-May-23 23:00N 56°23' W 002°40'0 0.0
2017-May-23 22:30N 56°23' W 002°40'0 0.0
2017-May-23 22:00N 56°23' W 002°40'0 0.0
2017-May-23 21:30N 56°23' W 002°40'0 0.0
2017-May-23 21:00N 56°23' W 002°40'0 0.0
2017-May-23 20:30N 56°23' W 002°40'0 0.0
2017-May-23 20:00N 56°23' W 002°40'0 0.0
2017-May-23 19:30N 56°23' W 002°40'0 0.0
2017-May-23 19:00N 56°23' W 002°40'0 0.0
2017-May-23 18:30N 56°23' W 002°40'0 0.0
2017-May-23 18:00N 56°23' W 002°40'0 0.0
2017-May-23 17:30N 56°23' W 002°40'0 0.0
2017-May-23 17:00N 56°23' W 002°40'2 4.2
2017-May-23 16:30N 56°21' W 002°37'510.6
2017-May-23 16:00N 56°18' W 002°31'5 9.7
2017-May-23 15:30N 56°13' W 002°34'611.5
2017-May-23 15:00N 56°10' W 002°42'611.4
2017-May-23 14:30N 56°06' W 002°50'1111.2
2017-May-23 13:30N 56°01' W 003°08'2 4.3
2017-May-23 13:00N 55°59' W 003°11'0 0.7
2017-May-23 12:29N 55°59' W 003°11'0 0.0
2017-May-23 11:59N 55°59' W 003°11'0 0.0
2017-May-23 11:29N 55°59' W 003°11'0 0.0
2017-May-23 10:59N 55°59' W 003°11'0 0.0
2017-May-23 10:29N 55°59' W 003°11'0 0.0
2017-May-23 09:59N 55°59' W 003°11'0 0.0
2017-May-23 09:29N 55°59' W 003°11'0 0.0
2017-May-23 08:59N 55°59' W 003°11'0 0.0
2017-May-23 08:29N 55°59' W 003°11'0 0.0
2017-May-23 07:59N 55°59' W 003°11'0 0.0
2017-May-23 07:29N 55°59' W 003°11'0 0.0
2017-May-23 06:59N 55°59' W 003°11'0 0.0
2017-May-23 06:29N 55°59' W 003°11'0 0.0
2017-May-23 05:59N 55°59' W 003°11'0 0.0
2017-May-23 05:29N 55°59' W 003°11'0 0.0
2017-May-23 04:59N 55°59' W 003°11'0 0.0
2017-May-23 04:29N 55°59' W 003°11'0 0.0
2017-May-23 03:59N 55°59' W 003°11'0 0.0
2017-May-23 03:29N 55°59' W 003°11'0 0.0
2017-May-23 02:59N 55°59' W 003°11'0 0.0
2017-May-23 02:29N 55°59' W 003°11'0 0.0
2017-May-23 01:59N 55°59' W 003°11'0 0.0
2017-May-23 01:29N 55°59' W 003°11'0 0.0
2017-May-23 00:59N 55°59' W 003°11'0 0.0
2017-May-23 00:29N 55°59' W 003°11'0 0.0
2017-May-22 23:59N 55°59' W 003°11'0 0.0
2017-May-22 23:29N 55°59' W 003°11'0 0.0
2017-May-22 22:59N 55°59' W 003°11'0 0.0
2017-May-22 22:29N 55°59' W 003°11'0 0.0
2017-May-22 21:59N 55°59' W 003°11'0 0.0
2017-May-22 21:29N 55°59' W 003°11'0 0.0
2017-May-22 20:59N 55°59' W 003°11'0 0.0
2017-May-22 20:29N 55°59' W 003°11'0 0.0
2017-May-22 19:59N 55°59' W 003°11'0 0.0
2017-May-22 19:29N 55°59' W 003°11'0 0.0
2017-May-22 18:59N 55°59' W 003°11'0 0.0
2017-May-22 18:29N 55°59' W 003°11'0 0.0
2017-May-22 17:59N 55°59' W 003°11'0 0.0
2017-May-22 17:29N 55°59' W 003°11'0 0.0
2017-May-22 16:59N 55°59' W 003°11'0 0.0
2017-May-22 16:29N 55°59' W 003°11'0 0.0
2017-May-22 15:59N 55°59' W 003°11'0 0.0
2017-May-22 15:29N 55°59' W 003°11'0 0.0
2017-May-22 14:59N 55°59' W 003°11'0 0.0
2017-May-22 13:59N 55°59' W 003°11'0 0.0
2017-May-22 13:29N 55°59' W 003°11'0 0.0
2017-May-22 12:59N 55°59' W 003°11'0 0.0
2017-May-22 12:29N 55°59' W 003°11'0 0.0
2017-May-22 11:59N 55°59' W 003°11'0 0.0
2017-May-22 11:29N 55°59' W 003°11'0 0.0
2017-May-22 10:59N 55°59' W 003°11'0 0.0
2017-May-22 10:29N 55°59' W 003°11'0 0.0
2017-May-22 09:59N 55°59' W 003°11'0 0.0
2017-May-22 09:28N 55°59' W 003°11'0 0.0
2017-May-22 08:58N 55°59' W 003°11'0 0.0
2017-May-22 08:28N 55°59' W 003°11'0 0.0
2017-May-22 07:58N 55°59' W 003°11'0 0.0
2017-May-22 07:28N 55°59' W 003°11'0 0.0
2017-May-22 06:58N 55°59' W 003°11'0 0.0
2017-May-22 06:28N 55°59' W 003°11'0 0.0
2017-May-22 05:58N 55°59' W 003°11'0 0.0
2017-May-22 05:28N 55°59' W 003°11'0 0.0
2017-May-22 05:01N 55°59' W 003°11'0 0.8
2017-May-22 04:31N 55°59' W 003°11'0 0.0
2017-May-22 04:01N 55°59' W 003°11'1 2.1
2017-May-22 03:30N 56°00' W 003°12'0 0.7
2017-May-22 03:00N 56°00' W 003°11'1 2.3
2017-May-22 02:30N 56°00' W 003°09'4 7.6
2017-May-22 02:01N 56°02' W 003°03'4 8.9
2017-May-22 01:31N 56°04' W 002°56'4 9.0
2017-May-22 01:01N 56°06' W 002°49'5 9.0
2017-May-22 00:30N 56°07' W 002°41'5 9.3
2017-May-22 00:01N 56°08' W 002°33'5 9.5
2017-May-21 23:31N 56°09' W 002°24'5 9.3
2017-May-21 23:01N 56°09' W 002°16'5 9.1
2017-May-21 22:31N 56°10' W 002°08'5 9.2
2017-May-21 22:01N 56°11' W 001°60'5 9.2
2017-May-21 21:30N 56°12' W 001°52'5 9.3
2017-May-21 21:00N 56°12' W 001°43'368 8.9
2017-May-20 03:32N 57°37' E 009°13'0 9.0
2017-May-20 03:29N 57°37' E 009°14'6 9.2
2017-May-20 02:47N 57°39' E 009°25'3 9.4
2017-May-20 02:30N 57°39' E 009°30'5 9.5
2017-May-20 02:00N 57°41' E 009°39'5 9.7
2017-May-20 01:30N 57°42' E 009°47'5 9.7
2017-May-20 01:00N 57°43' E 009°56'5 9.5
2017-May-20 00:30N 57°45' E 010°05'5 9.3
2017-May-20 00:00N 57°46' E 010°13'5 9.2
2017-May-19 23:30N 57°48' E 010°21'5 9.1
2017-May-19 23:00N 57°48' E 010°30'5 9.3
2017-May-19 22:30N 57°49' E 010°38'4 8.2
2017-May-19 22:01N 57°49' E 010°46'5 9.1
2017-May-19 21:28N 57°45' E 010°52'4 8.8
2017-May-19 21:00N 57°42' E 010°58'4 9.0
2017-May-19 20:30N 57°39' E 011°04'5 9.5
2017-May-19 20:00N 57°36' E 011°11'5 9.8
2017-May-19 19:30N 57°33' E 011°18'5 9.8
2017-May-19 19:00N 57°30' E 011°24'5 9.3
2017-May-19 18:31N 57°25' E 011°28'5 9.7
2017-May-19 18:00N 57°21' E 011°30'510.0
2017-May-19 17:30N 57°16' E 011°34'510.1
2017-May-19 17:01N 57°11' E 011°37'510.1
2017-May-19 16:30N 57°07' E 011°40'5 9.7
2017-May-19 16:00N 57°02' E 011°43'5 9.4
2017-May-19 15:30N 56°58' E 011°47'5 9.2
2017-May-19 15:00N 56°53' E 011°49'11 9.0
2017-May-19 13:49N 56°43' E 011°55'32 8.6
2017-May-19 10:07N 56°14' E 012°17'1 9.5
2017-May-19 10:01N 56°13' E 012°19'4 9.0
2017-May-19 09:31N 56°10' E 012°25'5 9.1
2017-May-19 09:01N 56°08' E 012°32'4 8.9
2017-May-19 08:31N 56°05' E 012°37'4 8.3
2017-May-19 08:01N 56°01' E 012°41'4 8.7
2017-May-19 07:31N 55°57' E 012°44'4 8.7
2017-May-19 07:00N 55°52' E 012°45'4 8.8
2017-May-19 06:30N 55°48' E 012°47'4 8.8
2017-May-19 06:01N 55°44' E 012°51'4 8.7
2017-May-19 05:30N 55°41' E 012°55'4 7.6
2017-May-19 05:01N 55°37' E 012°54'4 7.2
2017-May-19 04:30N 55°34' E 012°50'4 7.4
2017-May-19 04:01N 55°32' E 012°45'4 8.3
2017-May-19 03:30N 55°28' E 012°43'4 8.9
2017-May-19 03:01N 55°23' E 012°41'5 9.1
2017-May-19 02:31N 55°19' E 012°40'4 8.8
2017-May-19 02:00N 55°17' E 012°47'5 9.3
2017-May-19 01:30N 55°15' E 012°55'4 8.9
2017-May-19 01:00N 55°13' E 013°02'5 9.4
2017-May-19 00:30N 55°10' E 013°07'14 9.4
2017-May-18 22:58N 54°58' E 013°22'5 9.2
2017-May-18 22:28N 54°54' E 013°26'10 9.1
2017-May-18 21:23N 54°46' E 013°35'9 9.4
2017-May-18 20:24N 54°38' E 013°43'36 4.9
2017-May-18 13:06N 54°02' E 013°46'  

Dump ship's entire track history